Time;durP1;ratioP1;P1;durP2;ratioP2;P2;SDS_P1;SDS_P2;PMS_P1;PMS_P2;Temp;Humidity;BMP_temperature;BMP_pressure;BME280_temperature;BME280_humidity;BME280_pressure;Samples;Min_cycle;Max_cycle;Signal;HPM_P1;HPM_P2
2023/01/03 00:01:12;;;;;;;45.88;41.47;;;;;;;3.41;73.95;95970.88;5094627;28;20200;-71
2023/01/03 00:03:39;;;;;;;45.67;41.17;;;;;;;3.42;74.15;95967.91;5094485;28;20193;-71
2023/01/03 00:06:15;;;;;;;48.10;43.47;;;;;;;3.43;73.77;95958.59;5094608;28;20597;-71
2023/01/03 00:08:42;;;;;;;45.60;41.10;;;;;;;3.36;73.47;95961.66;5094352;28;20200;-71
2023/01/03 00:11:11;;;;;;;46.97;42.50;;;;;;;3.36;73.85;95964.38;5094665;28;20196;-71
2023/01/03 00:13:37;;;;;;;47.72;42.67;;;;;;;3.31;73.49;95963.63;5095364;28;20199;-71
2023/01/03 00:16:06;;;;;;;46.33;41.83;;;;;;;3.29;73.63;95958.44;5094536;28;20557;-71
2023/01/03 00:18:32;;;;;;;50.30;44.80;;;;;;;3.26;73.75;95963.66;5094371;28;20204;-71
2023/01/03 00:21:03;;;;;;;65.07;52.50;;;;;;;3.20;73.86;95962.09;5094612;28;20203;-71
2023/01/03 00:23:30;;;;;;;59.13;49.70;;;;;;;3.19;73.56;95952.25;5094887;28;20200;-71
2023/01/03 00:25:57;;;;;;;54.88;48.38;;;;;;;3.17;73.53;95954.47;5095386;28;20189;-71
2023/01/03 00:28:24;;;;;;;55.30;48.90;;;;;;;3.17;73.75;95958.00;5095218;28;20201;-71
2023/01/03 00:30:50;;;;;;;53.28;47.42;;;;;;;3.17;73.32;95959.91;5095412;28;20180;-71
2023/01/03 00:33:19;;;;;;;55.08;49.25;;;;;;;3.18;73.73;95958.81;5095312;28;20189;-71
2023/01/03 00:35:46;;;;;;;54.22;48.45;;;;;;;3.16;73.80;95961.00;5095088;28;20184;-71
2023/01/03 00:38:12;;;;;;;55.20;49.33;;;;;;;3.08;74.09;95963.22;5094000;28;20211;-71
2023/01/03 00:40:39;;;;;;;51.08;45.92;;;;;;;3.05;73.88;95958.38;5093997;28;20239;-71
2023/01/03 00:45:50;;;;;;;51.28;46.13;;;;;;;3.09;73.80;95962.16;5093981;28;20202;-71
2023/01/03 00:48:18;;;;;;;52.55;47.15;;;;;;;3.09;73.84;95959.41;5094340;28;20211;-71
2023/01/03 00:50:44;;;;;;;51.67;46.35;;;;;;;3.08;73.99;95956.97;5094133;28;20220;-71
2023/01/03 00:53:11;;;;;;;49.03;44.20;;;;;;;3.09;73.76;95959.41;5094687;28;20196;-71
2023/01/03 00:55:38;;;;;;;51.05;46.00;;;;;;;3.08;73.44;95952.31;5094550;28;20188;-71
2023/01/03 00:58:05;;;;;;;54.05;48.65;;;;;;;3.01;73.83;95954.56;5094295;28;20223;-71
2023/01/03 01:00:31;;;;;;;52.85;47.65;;;;;;;3.01;73.44;95961.91;5094095;28;20222;-71
2023/01/03 01:02:58;;;;;;;53.65;48.60;;;;;;;2.97;73.19;95956.22;5094069;28;20193;-71
2023/01/03 01:05:28;;;;;;;51.30;46.35;;;;;;;2.96;73.71;95954.59;5094738;28;20616;-71
2023/01/03 01:07:55;;;;;;;51.47;46.20;;;;;;;2.96;74.06;95948.34;5094306;28;20200;-71
2023/01/03 01:10:23;;;;;;;48.67;44.05;;;;;;;2.95;74.00;95955.69;5094749;28;20173;-71
2023/01/03 01:12:50;;;;;;;47.97;43.25;;;;;;;2.96;74.14;95948.34;5096347;28;20196;-71
2023/01/03 01:15:17;;;;;;;48.42;43.92;;;;;;;2.95;74.17;95947.53;5097643;28;20192;-71
2023/01/03 01:17:43;;;;;;;48.03;43.45;;;;;;;2.94;74.27;95940.47;5097714;28;20216;-71
2023/01/03 01:20:10;;;;;;;47.97;43.47;;;;;;;2.96;74.66;95948.34;5097547;28;20208;-71
2023/01/03 01:22:39;;;;;;;47.08;42.38;;;;;;;2.92;74.56;95941.81;5097567;28;20219;-71
2023/01/03 01:25:06;;;;;;;47.72;42.95;;;;;;;2.95;74.66;95944.81;5097627;28;20208;-71
2023/01/03 01:27:33;;;;;;;47.22;42.60;;;;;;;2.97;74.57;95941.78;5098195;28;20192;-71
2023/01/03 01:30:00;;;;;;;49.10;44.50;;;;;;;2.95;74.17;95941.28;5097251;28;20188;-71
2023/01/03 01:32:26;;;;;;;48.60;43.85;;;;;;;2.91;74.77;95940.22;5098096;28;20188;-71
2023/01/03 01:34:53;;;;;;;50.30;45.40;;;;;;;2.89;74.30;95935.03;5097467;28;20613;-71
2023/01/03 01:37:20;;;;;;;47.58;43.08;;;;;;;2.91;74.49;95941.03;5097115;28;20208;-71
2023/01/03 01:39:48;;;;;;;48.67;44.15;;;;;;;2.91;73.87;95937.47;5097909;28;20278;-71
2023/01/03 01:44:59;;;;;;;48.20;43.58;;;;;;;2.87;73.88;95940.78;5096991;28;20630;-71
2023/01/03 01:47:33;;;;;;;48.10;43.60;;;;;;;2.84;73.88;95929.63;5097781;28;20204;-71
2023/01/03 01:50:05;;;;;;;46.33;41.88;;;;;;;2.84;74.37;95935.06;5097537;28;20196;-71
2023/01/03 01:52:35;;;;;;;46.42;41.92;;;;;;;2.83;74.04;95925.25;5097138;28;20624;-71
2023/01/03 01:55:05;;;;;;;45.97;41.50;;;;;;;2.84;74.27;95938.59;5097016;28;20209;-71
2023/01/03 01:57:33;;;;;;;48.40;43.80;;;;;;;2.79;73.90;95918.75;5097795;28;20217;-71
2023/01/03 02:00:00;;;;;;;48.08;43.47;;;;;;;2.77;73.94;95929.13;5096875;28;20208;-71
2023/01/03 02:02:27;;;;;;;49.63;44.92;;;;;;;2.70;74.05;95925.91;5097035;28;20200;-71
2023/01/03 02:04:55;;;;;;;48.08;43.65;;;;;;;2.69;73.76;95933.25;5096701;28;20203;-71
2023/01/03 02:07:22;;;;;;;49.03;44.17;;;;;;;2.70;73.98;95931.34;5097729;28;20201;-71
2023/01/03 02:09:52;;;;;;;47.17;42.63;;;;;;;2.67;74.10;95927.25;5096571;28;20204;-71
2023/01/03 02:15:20;;;;;;;47.33;42.88;;;;;;;2.65;74.28;95930.28;5096803;28;20196;-71
2023/01/03 02:17:54;;;;;;;45.92;41.47;;;;;;;2.65;74.25;95924.84;5097145;28;20273;-71
2023/01/03 02:20:28;;;;;;;47.42;42.95;;;;;;;2.64;73.93;95923.19;5096475;28;20199;-71
2023/01/03 02:23:21;;;;;;;45.80;41.42;;;;;;;2.63;74.21;95928.94;5096636;28;20192;-71
2023/01/03 02:26:14;;;;;;;45.63;41.33;;;;;;;2.60;74.20;95924.03;5087849;28;20215;-71
2023/01/03 02:29:02;;;;;;;45.90;41.70;;;;;;;2.56;74.01;95931.97;5096292;28;20215;-71
2023/01/03 02:31:36;;;;;;;45.10;40.72;;;;;;;2.49;74.25;95931.44;5097068;28;20212;-71
2023/01/03 02:34:07;;;;;;;44.08;40.00;;;;;;;2.49;73.74;95922.47;5096462;28;20215;-71
2023/01/03 02:36:41;;;;;;;45.25;41.03;;;;;;;2.49;74.59;95931.44;5096354;28;20193;-71
2023/01/03 02:39:13;;;;;;;44.95;40.63;;;;;;;2.48;74.28;95918.94;5096293;28;20204;-71
2023/01/03 02:41:44;;;;;;;46.10;41.70;;;;;;;2.48;73.90;95915.41;5096157;28;20239;-71
2023/01/03 02:44:15;;;;;;;46.53;41.95;;;;;;;2.48;74.39;95923.56;5096189;28;20206;-71
2023/01/03 02:46:47;;;;;;;46.75;42.25;;;;;;;2.46;74.11;95921.13;5095877;28;20200;-71
2023/01/03 02:49:20;;;;;;;47.90;43.40;;;;;;;2.45;74.35;95918.69;5095845;28;20200;-71
2023/01/03 02:51:50;;;;;;;48.63;43.65;;;;;;;2.44;74.27;95917.88;5096114;28;20226;-71
2023/01/03 02:54:21;;;;;;;48.13;43.53;;;;;;;2.44;73.81;95915.16;5096073;28;20184;-71
2023/01/03 02:56:51;;;;;;;45.70;41.38;;;;;;;2.44;74.04;95922.50;5095818;28;20216;-71
2023/01/03 02:59:22;;;;;;;48.33;43.72;;;;;;;2.43;73.99;95913.50;5096136;28;20200;-71
2023/01/03 03:01:51;;;;;;;47.83;43.10;;;;;;;2.44;74.58;95911.63;5095930;28;20200;-71
2023/01/03 03:04:19;;;;;;;47.45;42.75;;;;;;;2.44;74.22;95914.34;5095590;28;20192;-71
2023/01/03 03:06:49;;;;;;;46.50;41.90;;;;;;;2.41;73.83;95913.78;5095322;28;20195;-71
2023/01/03 03:09:15;;;;;;;47.45;42.72;;;;;;;2.38;73.66;95908.09;5096434;28;20200;-71
2023/01/03 03:14:33;;;;;;;42.55;38.38;;;;;;;2.40;74.23;95911.38;5095268;28;20679;-71
2023/01/03 03:17:04;;;;;;;45.70;41.22;;;;;;;2.41;74.50;95913.78;5095223;28;20216;-71
2023/01/03 03:25:11;;;;;;;44.22;39.92;;;;;;;2.42;74.86;95911.88;5095302;28;20207;-71
2023/01/03 03:30:25;;;;;;;46.03;41.35;;;;;;;2.34;74.64;95907.03;5095015;28;20561;-71
2023/01/03 03:32:56;;;;;;;47.55;43.05;;;;;;;2.26;74.69;95908.44;5095650;28;20232;-71
2023/01/03 03:35:24;;;;;;;45.80;41.22;;;;;;;2.25;74.37;95917.69;5095418;28;20193;-71
2023/01/03 03:37:54;;;;;;;44.97;40.58;;;;;;;2.25;74.60;95914.13;5094849;28;20216;-71
2023/01/03 03:46:01;;;;;;;46.47;41.85;;;;;;;2.27;74.37;95929.09;5095301;28;20199;-71
2023/01/03 03:49:36;;;;;;;43.67;39.35;;;;;;;2.26;74.74;95921.22;5095177;28;20208;-71
2023/01/03 03:51:20;;;;;;;43.78;39.53;;;;;;;2.26;74.78;95922.03;5094815;28;20200;-71
2023/01/03 03:53:47;;;;;;;45.15;40.75;;;;;;;2.24;74.12;95920.69;5094974;28;20193;-71
2023/01/03 03:56:16;;;;;;;43.97;39.83;;;;;;;2.23;74.50;95919.88;5094913;28;20204;-71
2023/01/03 03:58:44;;;;;;;45.50;41.08;;;;;;;2.19;74.55;95926.97;5094521;28;20223;-71
2023/01/03 04:01:13;;;;;;;45.92;41.38;;;;;;;2.20;74.39;95925.06;5094640;28;20196;-71
2023/01/03 04:03:43;;;;;;;45.20;40.80;;;;;;;2.16;74.32;95917.44;5095204;28;20205;-71
2023/01/03 04:06:12;;;;;;;46.03;41.70;;;;;;;2.15;74.26;95915.03;5094976;28;20204;-71
2023/01/03 04:08:39;;;;;;;45.90;41.45;;;;;;;2.11;74.43;95908.50;5094824;28;20207;-71
2023/01/03 04:11:06;;;;;;;45.03;40.67;;;;;;;2.10;74.27;95913.13;5094618;28;20255;-71
2023/01/03 04:13:33;;;;;;;46.38;41.78;;;;;;;2.07;73.94;95913.69;5094385;28;20189;-71
2023/01/03 04:16:00;;;;;;;48.05;43.55;;;;;;;2.02;74.20;95919.13;5094900;28;20201;-71
2023/01/03 04:18:26;;;;;;;48.03;43.35;;;;;;;2.01;74.25;95914.00;5094520;28;20220;-71
2023/01/03 04:20:55;;;;;;;47.83;43.20;;;;;;;1.99;74.41;95908.81;5094258;28;20207;-71
2023/01/03 04:23:21;;;;;;;47.00;42.38;;;;;;;2.05;74.91;95917.78;5094932;28;20253;-71
2023/01/03 04:25:48;;;;;;;47.22;42.58;;;;;;;2.06;74.86;95917.47;5095064;28;20624;-71
2023/01/03 04:28:15;;;;;;;46.22;41.60;;;;;;;2.04;74.24;95918.88;5095458;28;20204;-71
2023/01/03 04:30:42;;;;;;;45.70;41.20;;;;;;;2.02;74.63;95910.97;5095470;28;20200;-71
2023/01/03 04:33:09;;;;;;;43.50;39.10;;;;;;;2.03;75.41;95922.66;5095006;28;20184;-71
2023/01/03 04:35:36;;;;;;;43.10;38.92;;;;;;;2.05;75.53;95912.34;5095215;28;20203;-71
2023/01/03 04:38:05;;;;;;;41.40;37.33;;;;;;;2.06;74.99;95919.41;5095249;28;20204;-71
2023/01/03 04:40:32;;;;;;;43.50;39.22;;;;;;;2.09;75.30;95919.66;5095282;28;20321;-71
2023/01/03 04:45:42;;;;;;;43.60;39.58;;;;;;;2.04;74.35;95936.00;5095002;28;20192;-72
2023/01/03 04:48:09;;;;;;;46.75;42.05;;;;;;;2.02;74.39;95940.09;5097458;28;20195;-71
2023/01/03 04:50:36;;;;;;;44.95;40.60;;;;;;;2.01;74.29;95954.81;5098486;28;20200;-71
2023/01/03 04:53:04;;;;;;;47.45;42.67;;;;;;;1.97;74.37;95956.44;5098896;28;20600;-71
2023/01/03 04:55:31;;;;;;;46.38;41.67;;;;;;;1.90;74.18;95952.09;5099222;28;20253;-71
2023/01/03 04:57:58;;;;;;;46.75;42.03;;;;;;;1.87;74.69;95949.94;5099115;28;20632;-71
2023/01/03 05:00:24;;;;;;;46.08;41.53;;;;;;;1.90;74.59;95952.09;5098225;28;20208;-71
2023/01/03 05:02:51;;;;;;;44.50;40.10;;;;;;;1.93;74.42;95950.75;5099061;28;20192;-71
2023/01/03 05:05:18;;;;;;;45.20;40.65;;;;;;;1.94;74.48;95957.81;5098932;28;20528;-71
2023/01/03 05:07:45;;;;;;;45.47;40.95;;;;;;;1.97;74.74;95953.72;5098976;28;20177;-71
2023/01/03 05:10:13;;;;;;;47.05;41.95;;;;;;;1.98;74.78;95950.72;5097766;28;20200;-71
2023/01/03 05:12:39;;;;;;;45.60;41.15;;;;;;;1.97;74.33;95949.09;5098983;28;20196;-71
2023/01/03 05:15:08;;;;;;;47.15;42.33;;;;;;;1.91;74.23;95964.59;5098719;28;20241;-71
2023/01/03 05:17:34;;;;;;;47.70;43.20;;;;;;;1.85;73.77;95959.44;5098168;28;20219;-71
2023/01/03 05:28:15;;;;;;;48.17;43.15;;;;;;;1.81;74.98;95961.91;5098057;28;20189;-71
2023/01/03 05:30:41;;;;;;;48.20;43.50;;;;;;;1.84;74.78;95960.56;5098436;28;20184;-71
2023/01/03 05:33:08;;;;;;;47.97;43.08;;;;;;;1.84;74.91;95955.91;5098570;28;20305;-71
2023/01/03 05:35:35;;;;;;;46.72;41.85;;;;;;;1.86;74.79;95959.19;5097770;28;20259;-71
2023/01/03 05:38:02;;;;;;;47.53;42.88;;;;;;;1.88;74.57;95957.00;5098471;28;20230;-71
2023/01/03 05:40:29;;;;;;;49.80;44.60;;;;;;;1.90;74.99;95954.00;5098074;28;20231;-71
2023/01/03 05:42:57;;;;;;;48.22;43.17;;;;;;;1.88;74.71;95950.75;5097199;28;20189;-71
2023/01/03 05:45:26;;;;;;;49.15;44.00;;;;;;;1.86;74.43;95952.94;5097264;28;20200;-71
2023/01/03 05:47:52;;;;;;;47.28;42.58;;;;;;;1.78;74.70;95948.88;5097141;28;20184;-71
2023/01/03 05:50:19;;;;;;;47.72;42.78;;;;;;;1.73;74.42;95950.78;5096127;28;20298;-71
2023/01/03 05:52:47;;;;;;;48.45;43.53;;;;;;;1.73;74.55;95957.03;5095676;28;20196;-71
2023/01/03 05:55:14;;;;;;;50.33;44.90;;;;;;;1.71;74.46;95952.94;5095934;28;20254;-71
2023/01/03 05:57:41;;;;;;;50.85;45.75;;;;;;;1.67;74.72;95960.84;5095768;28;20216;-71
2023/01/03 06:00:11;;;;;;;50.33;45.42;;;;;;;1.68;75.03;95959.78;5095530;28;20621;-71
2023/01/03 06:02:37;;;;;;;49.78;44.88;;;;;;;1.69;75.33;95961.41;5095784;28;20197;-71
2023/01/03 06:05:05;;;;;;;48.65;43.47;;;;;;;1.72;75.19;95960.84;5095373;28;20682;-71
2023/01/03 06:07:32;;;;;;;46.15;41.45;;;;;;;1.74;74.87;95964.09;5096472;28;20508;-71
2023/01/03 06:09:59;;;;;;;46.42;41.72;;;;;;;1.78;74.66;95967.09;5095877;28;20196;-71
2023/01/03 06:12:26;;;;;;;48.25;43.28;;;;;;;1.74;75.63;95972.25;5095855;28;20199;-71
2023/01/03 06:14:53;;;;;;;47.30;42.53;;;;;;;1.77;76.36;95977.16;5095686;28;20192;-71
2023/01/03 06:20:06;;;;;;;50.35;44.90;;;;;;;1.82;75.49;95979.06;5095463;28;20226;-71
2023/01/03 06:22:33;;;;;;;54.08;48.17;;;;;;;1.76;74.96;95986.41;5095578;28;20188;-71
2023/01/03 06:25:00;;;;;;;55.33;49.53;;;;;;;1.66;74.55;95992.66;5095546;28;20192;-71
2023/01/03 06:27:27;;;;;;;58.53;52.15;;;;;;;1.60;75.32;95982.09;5095601;28;20196;-71
2023/01/03 06:29:53;;;;;;;58.83;52.67;;;;;;;1.66;75.20;95989.13;5095329;28;20204;-71
2023/01/03 06:32:22;;;;;;;55.40;49.55;;;;;;;1.72;75.08;95984.53;5095533;28;20201;-71
2023/01/03 06:34:48;;;;;;;53.90;48.20;;;;;;;1.74;74.74;95982.31;5095936;28;20201;-71
2023/01/03 06:37:15;;;;;;;55.47;49.88;;;;;;;1.75;74.92;95983.97;5095640;28;20192;-71
2023/01/03 06:39:42;;;;;;;54.85;49.17;;;;;;;1.76;74.81;95983.69;5095203;28;20212;-71
2023/01/03 06:53:13;;;;;;;67.05;60.10;;;;;;;1.98;75.52;95996.97;5095676;28;20188;-71
2023/01/03 06:55:40;;;;;;;64.10;57.70;;;;;;;1.99;75.31;96005.94;5095857;28;20196;-71
2023/01/03 06:58:06;;;;;;;67.00;60.17;;;;;;;2.03;75.69;95998.88;5095537;28;20660;-71
2023/01/03 07:00:34;;;;;;;67.07;60.28;;;;;;;2.05;75.80;95997.50;5096072;28;20192;-71
2023/01/03 07:03:02;;;;;;;70.97;63.78;;;;;;;2.10;75.90;96002.09;5095848;28;20245;-71
2023/01/03 07:05:29;;;;;;;69.60;62.47;;;;;;;2.15;76.14;96007.56;5095498;28;20196;-71
2023/01/03 07:07:56;;;;;;;58.60;52.53;;;;;;;2.17;75.89;96014.34;5095503;28;20203;-71
2023/01/03 07:10:22;;;;;;;55.85;50.15;;;;;;;2.19;75.89;96010.53;5095192;28;20199;-71
2023/01/03 07:15:34;;;;;;;63.60;57.22;;;;;;;2.25;75.69;96021.16;5096083;28;20277;-71
2023/01/03 07:18:02;;;;;;;67.15;60.42;;;;;;;2.26;76.00;96019.22;5095351;28;20200;-71
2023/01/03 07:20:28;;;;;;;64.07;57.67;;;;;;;2.30;75.68;96020.31;5095477;28;20208;-71
2023/01/03 07:22:55;;;;;;;62.58;56.25;;;;;;;2.34;76.36;96018.66;5095143;28;20197;-71
2023/01/03 07:25:22;;;;;;;63.83;57.40;;;;;;;2.38;76.62;96025.16;5095205;28;20199;-71
2023/01/03 07:27:54;;;;;;;66.45;59.80;;;;;;;2.45;76.27;96024.88;5095974;28;20196;-71
2023/01/03 07:30:21;;;;;;;69.72;62.60;;;;;;;2.51;75.88;96024.59;5095601;28;20196;-71
2023/01/03 07:32:47;;;;;;;84.43;76.32;;;;;;;2.54;76.03;96026.75;5095372;28;20196;-71
2023/01/03 07:35:16;;;;;;;101.40;91.28;;;;;;;2.58;76.17;96024.28;5095495;28;20200;-71
2023/01/03 07:37:42;;;;;;;125.53;113.45;;;;;;;2.63;76.46;96026.97;5095135;28;20294;-71
2023/01/03 07:40:10;;;;;;;123.25;111.25;;;;;;;2.70;76.50;96019.31;5095053;28;20216;-71
2023/01/03 07:45:21;;;;;;;123.30;111.63;;;;;;;2.86;76.82;96020.88;5095078;28;20192;-71
2023/01/03 07:47:47;;;;;;;131.02;118.18;;;;;;;2.94;76.93;96022.22;5095365;28;20623;-71
2023/01/03 07:50:16;;;;;;;146.43;132.00;;;;;;;3.05;76.49;96023.78;5094887;28;20200;-70
2023/01/03 07:52:42;;;;;;;150.98;136.18;;;;;;;3.18;76.05;96026.97;5095109;28;20193;-70
2023/01/03 07:55:09;;;;;;;150.68;136.45;;;;;;;3.30;76.37;96021.97;5094918;28;20619;-70
2023/01/03 07:57:37;;;;;;;146.35;132.30;;;;;;;3.43;76.21;96024.06;5094936;28;20208;-70
2023/01/03 08:00:04;;;;;;;134.75;121.97;;;;;;;3.60;75.89;96019.03;5094506;28;20674;-71
2023/01/03 08:02:31;;;;;;;141.05;127.80;;;;;;;3.74;75.84;96015.63;5094818;28;20200;-71
2023/01/03 08:04:57;;;;;;;140.48;127.38;;;;;;;3.90;75.70;96022.56;5094808;28;20196;-70
2023/01/03 08:07:25;;;;;;;132.98;120.03;;;;;;;4.05;75.61;96016.97;5095124;28;20196;-71
2023/01/03 08:15:20;;;;;;;109.35;99.03;;;;;;;4.35;74.28;96029.47;5095049;28;20199;-70
2023/01/03 08:17:47;;;;;;;104.68;95.15;;;;;;;4.49;74.29;96024.13;5094856;28;20188;-71
2023/01/03 08:20:14;;;;;;;101.65;91.90;;;;;;;4.66;73.81;96031.06;5094711;28;20231;-70
2023/01/03 08:22:42;;;;;;;101.82;92.30;;;;;;;4.86;73.71;96024.53;5094816;28;20196;-70
2023/01/03 08:25:09;;;;;;;101.15;91.47;;;;;;;5.05;73.63;96026.19;5094202;28;20204;-71
2023/01/03 08:27:36;;;;;;;100.75;91.05;;;;;;;5.19;72.86;96026.28;5094158;28;20535;-70
2023/01/03 08:30:03;;;;;;;101.45;91.72;;;;;;;5.32;72.44;96020.03;5094687;28;20192;-71
2023/01/03 08:32:31;;;;;;;99.40;89.97;;;;;;;5.47;72.17;96020.94;5094569;28;20533;-70
2023/01/03 08:34:58;;;;;;;99.38;89.97;;;;;;;5.60;71.78;96031.13;5094098;28;20207;-71
2023/01/03 08:37:25;;;;;;;100.38;91.05;;;;;;;5.69;72.00;96015.63;5094639;28;20192;-70
2023/01/03 08:39:57;;;;;;;97.80;88.70;;;;;;;5.83;71.74;96021.16;5094972;28;20227;-71
2023/01/03 08:42:24;;;;;;;97.95;88.72;;;;;;;6.00;71.19;96021.47;5094457;28;20196;-70
2023/01/03 08:44:54;;;;;;;90.70;82.40;;;;;;;6.13;70.69;96021.78;5094543;28;20192;-70
2023/01/03 08:47:21;;;;;;;85.10;76.78;;;;;;;6.20;71.02;96017.53;5094224;28;20219;-71
2023/01/03 08:49:48;;;;;;;86.75;78.38;;;;;;;6.32;71.36;96008.00;5094704;28;20200;-71
2023/01/03 08:52:15;;;;;;;90.65;82.20;;;;;;;6.42;70.86;96003.16;5094261;28;20613;-71
2023/01/03 08:54:42;;;;;;;90.82;82.47;;;;;;;6.49;70.03;96010.97;5094224;28;20200;-71
2023/01/03 08:57:10;;;;;;;98.55;89.13;;;;;;;6.54;70.00;96010.88;5094150;28;20253;-71
2023/01/03 08:59:37;;;;;;;97.85;88.75;;;;;;;6.65;70.18;96008.75;5094194;28;20224;-70
2023/01/03 09:02:05;;;;;;;92.63;83.55;;;;;;;6.79;69.65;96003.25;5094444;28;20204;-71
2023/01/03 09:04:32;;;;;;;90.90;82.00;;;;;;;6.94;69.53;95997.47;5093973;28;20196;-71
2023/01/03 09:06:58;;;;;;;96.13;86.75;;;;;;;7.10;69.04;96001.47;5094116;28;20200;-70
2023/01/03 09:09:25;;;;;;;97.93;87.95;;;;;;;7.23;69.18;96002.59;5093939;28;20193;-71
2023/01/03 09:11:52;;;;;;;97.70;88.07;;;;;;;7.33;68.53;95993.28;5094171;28;20208;-70
2023/01/03 09:14:20;;;;;;;100.43;90.50;;;;;;;7.45;68.14;95996.31;5093887;28;20199;-70
2023/01/03 09:16:47;;;;;;;95.65;86.57;;;;;;;7.56;67.24;95988.66;5094298;28;20197;-71
2023/01/03 09:19:13;;;;;;;92.72;83.55;;;;;;;7.66;66.72;95986.47;5093881;28;20213;-71
2023/01/03 09:21:40;;;;;;;94.28;84.97;;;;;;;7.81;66.79;95988.03;5094290;28;20196;-70
2023/01/03 09:24:08;;;;;;;88.82;79.82;;;;;;;7.93;65.86;95980.03;5094051;28;20200;-71
2023/01/03 09:26:35;;;;;;;84.97;76.50;;;;;;;8.12;66.33;95981.75;5094016;28;20267;-71
2023/01/03 09:29:01;;;;;;;82.95;74.75;;;;;;;8.29;65.93;95984.59;5094054;28;20214;-71
2023/01/03 09:31:33;;;;;;;81.03;72.55;;;;;;;8.51;65.26;95981.00;5093894;28;20192;-71
2023/01/03 09:33:59;;;;;;;64.30;57.72;;;;;;;8.78;65.48;95973.63;5096754;28;20198;-71
2023/01/03 09:36:26;;;;;;;62.30;56.15;;;;;;;9.02;64.68;95965.78;5097634;28;20211;-71
2023/01/03 09:38:53;;;;;;;64.32;58.00;;;;;;;9.27;63.53;95955.13;5097415;28;20556;-70
2023/01/03 09:41:23;;;;;;;70.22;63.03;;;;;;;9.44;62.70;95955.13;5097427;28;20298;-70
2023/01/03 09:43:52;;;;;;;75.13;67.63;;;;;;;9.72;61.97;95943.75;5097501;28;20204;-71
2023/01/03 09:46:21;;;;;;;69.22;62.35;;;;;;;9.95;61.05;95936.94;5097514;28;20204;-71
2023/01/03 09:48:50;;;;;;;71.85;64.63;;;;;;;10.15;60.75;95938.16;5096869;28;20643;-71
2023/01/03 10:05:36;;;;;;;77.32;69.47;;;;;;;11.42;56.16;95905.00;5096808;28;20609;-71
2023/01/03 10:08:13;;;;;;;84.70;76.25;;;;;;;11.50;55.51;95895.81;5097054;28;20203;-71
2023/01/03 10:10:46;;;;;;;89.15;79.78;;;;;;;11.67;54.92;95894.88;5096958;28;20208;-71
2023/01/03 10:13:19;;;;;;;104.85;93.85;;;;;;;11.90;54.25;95891.75;5096574;28;20203;-71
2023/01/03 10:15:49;;;;;;;101.53;91.05;;;;;;;11.94;53.55;95893.47;5097404;28;20189;-71
2023/01/03 10:18:30;;;;;;;95.22;85.65;;;;;;;11.83;53.74;95889.50;5096437;28;20644;-71
2023/01/03 10:21:03;;;;;;;97.07;86.72;;;;;;;11.91;53.21;95891.41;5096675;28;20224;-71
2023/01/03 10:23:30;;;;;;;105.75;94.97;;;;;;;11.98;52.94;95886.13;5096706;28;20632;-71
2023/01/03 10:25:57;;;;;;;118.30;106.18;;;;;;;11.90;53.16;95880.69;5096364;28;20633;-71
2023/01/03 10:28:26;;;;;;;116.43;104.88;;;;;;;11.63;53.36;95873.78;5096489;28;20192;-71
2023/01/03 10:31:01;;;;;;;114.45;103.05;;;;;;;11.30;53.95;95874.56;5096495;28;20196;-71
2023/01/03 10:33:33;;;;;;;113.50;101.38;;;;;;;11.00;55.03;95865.53;5096524;28;20202;-71
2023/01/03 10:36:01;;;;;;;111.72;100.18;;;;;;;10.71;55.34;95858.94;5096720;28;20208;-71
2023/01/03 10:38:28;;;;;;;108.78;97.50;;;;;;;10.52;55.57;95861.31;5096146;28;20189;-71
2023/01/03 10:40:57;;;;;;;112.22;100.28;;;;;;;10.30;56.26;95857.69;5095763;28;20238;-72
2023/01/03 10:43:29;;;;;;;106.78;95.63;;;;;;;10.17;57.17;95857.88;5096436;28;20293;-71
2023/01/03 10:45:58;;;;;;;104.80;93.85;;;;;;;10.10;57.39;95859.22;5095694;28;20211;-71
2023/01/03 10:48:26;;;;;;;103.22;92.90;;;;;;;10.00;57.35;95845.00;5096168;28;20204;-71
2023/01/03 10:50:53;;;;;;;97.65;87.10;;;;;;;9.99;57.71;95848.91;5095823;28;20188;-71
2023/01/03 10:53:22;;;;;;;100.10;89.82;;;;;;;9.99;57.53;95838.69;5095767;28;20196;-71
2023/01/03 10:55:51;;;;;;;98.85;88.63;;;;;;;9.94;57.62;95838.84;5096137;28;20283;-71
2023/01/03 10:58:23;;;;;;;98.15;87.45;;;;;;;9.93;57.97;95836.44;5096130;28;20192;-71
2023/01/03 11:00:51;;;;;;;96.55;86.15;;;;;;;9.94;58.16;95830.56;5095516;28;20285;-71
2023/01/03 11:03:20;;;;;;;100.80;90.45;;;;;;;9.95;58.20;95823.13;5095619;28;20654;-70
2023/01/03 11:05:47;;;;;;;100.78;89.97;;;;;;;9.91;58.00;95822.97;5096444;28;20559;-71
2023/01/03 11:08:22;;;;;;;98.00;87.63;;;;;;;9.88;58.24;95824.44;5095912;28;20203;-71
2023/01/03 11:10:55;;;;;;;98.70;87.40;;;;;;;9.89;58.32;95812.28;5095750;28;20195;-71
2023/01/03 11:13:23;;;;;;;96.97;86.80;;;;;;;9.88;58.62;95815.38;5095454;28;20196;-70
2023/01/03 11:15:54;;;;;;;98.72;88.30;;;;;;;9.99;58.36;95813.88;5095902;28;20597;-71
2023/01/03 11:18:21;;;;;;;93.88;83.90;;;;;;;10.28;58.92;95812.31;5095410;28;20200;-71
2023/01/03 11:20:52;;;;;;;95.35;85.70;;;;;;;10.57;57.25;95808.72;5095162;28;20220;-71
2023/01/03 11:23:27;;;;;;;95.68;85.45;;;;;;;11.01;56.34;95801.72;5095624;28;20207;-71
2023/01/03 11:26:03;;;;;;;96.35;85.80;;;;;;;11.42;54.98;95796.47;5095721;28;20615;-71
2023/01/03 11:28:57;;;;;;;93.97;84.15;;;;;;;11.99;53.20;95795.72;5095440;28;20253;-71
2023/01/03 11:31:34;;;;;;;93.45;83.63;;;;;;;12.45;52.08;95786.13;5095684;28;20207;-71
2023/01/03 11:34:07;;;;;;;95.05;84.90;;;;;;;12.73;51.37;95786.19;5095548;28;20620;-71
2023/01/03 11:36:41;;;;;;;94.65;84.47;;;;;;;13.10;50.37;95774.19;5095116;28;20635;-71
2023/01/03 11:39:31;;;;;;;94.32;84.10;;;;;;;13.65;48.88;95773.41;5094766;28;20215;-71
2023/01/03 11:42:10;;;;;;;95.72;85.30;;;;;;;14.50;46.72;95767.59;5095271;28;20251;-70
2023/01/03 11:44:58;;;;;;;96.88;86.40;;;;;;;15.47;44.57;95759.31;5096180;28;20199;-71
2023/01/03 11:47:31;;;;;;;96.45;85.93;;;;;;;15.92;43.32;95761.38;5095247;28;20200;-71
2023/01/03 11:50:15;;;;;;;95.82;85.55;;;;;;;16.34;42.10;95752.97;5095717;28;20203;-71
2023/01/03 11:52:47;;;;;;;94.70;84.03;;;;;;;17.07;41.52;95748.06;5095226;28;20545;-71
2023/01/03 11:55:35;;;;;;;92.95;82.97;;;;;;;18.31;38.31;95746.19;5094413;28;20195;-71
2023/01/03 11:58:11;;;;;;;93.03;82.78;;;;;;;18.94;36.84;95739.47;5095297;28;20207;-71
2023/01/03 12:00:45;;;;;;;95.15;84.30;;;;;;;18.92;37.02;95744.66;5095368;28;20257;-70
2023/01/03 12:03:19;;;;;;;96.25;85.72;;;;;;;18.79;36.60;95740.56;5095409;28;20193;-71
2023/01/03 12:05:47;;;;;;;98.30;87.47;;;;;;;18.33;37.68;95744.59;5095800;28;20179;-71
2023/01/03 12:08:34;;;;;;;99.07;88.45;;;;;;;17.70;38.51;95743.59;5095005;28;20188;-71
2023/01/03 12:11:09;;;;;;;110.85;97.78;;;;;;;17.69;38.52;95736.44;5078687;28;20215;-71
2023/01/03 12:13:41;;;;;;;103.10;92.25;;;;;;;17.65;39.31;95734.78;5095603;28;20187;-71
2023/01/03 12:16:11;;;;;;;110.38;98.43;;;;;;;18.09;38.19;95725.69;5095599;28;20251;-71
2023/01/03 12:18:44;;;;;;;108.20;96.72;;;;;;;18.52;38.45;95730.41;5095334;28;20636;-71
2023/01/03 12:21:14;;;;;;;105.80;94.43;;;;;;;18.44;38.27;95725.94;5094447;28;20266;-71
2023/01/03 12:23:44;;;;;;;110.43;98.65;;;;;;;17.59;39.02;95723.16;5094856;28;20205;-71
2023/01/03 12:26:15;;;;;;;127.10;113.43;;;;;;;16.86;40.84;95722.69;5094895;28;20199;-71
2023/01/03 12:28:43;;;;;;;120.95;108.10;;;;;;;16.34;42.05;95729.88;5095435;28;20184;-71
2023/01/03 12:31:20;;;;;;;118.78;105.88;;;;;;;15.98;43.09;95725.72;5095032;28;20513;-71
2023/01/03 12:33:59;;;;;;;115.75;102.82;;;;;;;15.64;43.32;95722.72;5094522;28;20207;-71
2023/01/03 12:36:33;;;;;;;118.57;105.57;;;;;;;15.30;44.35;95722.47;5095003;28;20208;-71
2023/01/03 12:39:08;;;;;;;123.57;106.95;;;;;;;14.97;45.13;95719.44;5095037;28;20531;-71
2023/01/03 12:41:39;;;;;;;120.32;107.32;;;;;;;14.68;45.76;95722.41;5095058;28;20652;-71
2023/01/03 12:44:12;;;;;;;121.97;108.35;;;;;;;14.55;46.50;95725.66;5094926;28;20605;-71
2023/01/03 12:46:43;;;;;;;119.60;106.43;;;;;;;14.42;46.25;95720.22;5095284;28;20188;-71